Baltic Marshall — C4KD2 — position and weather

sailwx.info

Track history (hours):
 
Tides and Currents Weather Stations Pressure Air Temp Water Temp Dewpoint Dewpoint Depression Visibility Wind Speed Wind Dir Waves Ship Positions

Baltic Marshall

Last reported at 2017-May-25 00:17 UTC. Time now 2017-May-25 05:14 UTC.
Position N 51°16' E 004°21'.

Length 183 m; draft 10.1 m.

Type: Ship (hazmat cat B). MMSI: 212118000.

Date/timePositionNaut miles runAvg speedWind from/ knotsBaromVisibWave heightAir tempDewpointWater temp
2017-May-25 00:17N 51°16' E 004°21'0 0.2
2017-May-25 00:00N 51°16' E 004°21'1 1.7
2017-May-24 23:30N 51°17' E 004°21'3 6.1
2017-May-24 23:00N 51°20' E 004°18'1 3.0
2017-May-24 22:31N 51°21' E 004°17'0 0.0
2017-May-24 22:00N 51°21' E 004°17'0 0.2
2017-May-24 21:31N 51°21' E 004°17'3 5.4
2017-May-24 21:00N 51°22' E 004°13'5 9.9
2017-May-24 20:30N 51°22' E 004°05'611.0
2017-May-24 20:00N 51°26' E 003°59'612.7
2017-May-24 19:30N 51°21' E 003°53'611.6
2017-May-24 19:00N 51°22' E 003°44'510.1
2017-May-24 18:30N 51°26' E 003°38'5 9.7
2017-May-24 18:00N 51°25' E 003°31'611.4
2017-May-24 17:30N 51°24' E 003°22'510.8
2017-May-24 17:00N 51°25' E 003°13'611.2
2017-May-24 16:30N 51°24' E 003°04'611.5
2017-May-24 16:00N 51°23' E 002°55'612.5
2017-May-24 15:30N 51°22' E 002°45'4 7.2
2017-May-24 15:00N 51°22' E 002°40'3 6.3
2017-May-24 14:30N 51°23' E 002°35'2 1.6
2017-May-24 13:30N 51°25' E 002°36'0 0.0
2017-May-24 13:00N 51°25' E 002°36'0 0.0
2017-May-24 12:30N 51°25' E 002°36'0 0.0
2017-May-24 12:00N 51°25' E 002°36'0 0.0
2017-May-24 11:30N 51°25' E 002°36'0 0.0
2017-May-24 11:00N 51°25' E 002°36'0 0.0
2017-May-24 10:30N 51°25' E 002°37'0 0.1
2017-May-24 10:00N 51°25' E 002°37'0 0.1
2017-May-24 09:30N 51°25' E 002°37'0 0.2
2017-May-24 09:00N 51°25' E 002°36'0 0.1
2017-May-24 08:30N 51°25' E 002°36'0 0.0
2017-May-24 08:00N 51°25' E 002°36'0 0.0
2017-May-24 07:30N 51°25' E 002°36'0 0.0
2017-May-24 07:00N 51°25' E 002°36'0 0.0
2017-May-24 06:30N 51°25' E 002°36'0 0.1
2017-May-24 06:00N 51°25' E 002°36'0 0.0
2017-May-24 05:30N 51°25' E 002°36'0 0.1
2017-May-24 05:00N 51°25' E 002°36'0 0.2
2017-May-24 04:30N 51°25' E 002°36'0 0.3
2017-May-24 04:00N 51°25' E 002°36'0 0.1
2017-May-24 03:30N 51°25' E 002°37'0 0.0
2017-May-24 03:00N 51°25' E 002°37'0 0.0
2017-May-24 02:30N 51°25' E 002°37'0 0.0
2017-May-24 02:00N 51°25' E 002°37'0 0.0
2017-May-24 01:30N 51°25' E 002°37'0 0.0
2017-May-24 01:00N 51°25' E 002°37'0 0.0
2017-May-24 00:27N 51°25' E 002°37'0 0.0
2017-May-24 00:00N 51°25' E 002°37'0 0.0
2017-May-23 23:30N 51°25' E 002°37'0 0.1
2017-May-23 23:00N 51°25' E 002°37'0 0.0
2017-May-23 22:18N 51°25' E 002°37'0 0.0
2017-May-23 22:00N 51°25' E 002°37'0 0.0
2017-May-23 21:21N 51°25' E 002°37'0 0.0
2017-May-23 21:00N 51°25' E 002°37'0 0.2
2017-May-23 19:42N 51°25' E 002°36'0 0.0
2017-May-23 19:30N 51°25' E 002°36'0 0.0
2017-May-23 18:54N 51°25' E 002°36'0 0.0
2017-May-23 18:30N 51°25' E 002°36'0 0.0
2017-May-23 18:00N 51°25' E 002°36'0 0.0
2017-May-23 17:30N 51°25' E 002°36'0 0.0
2017-May-23 17:00N 51°25' E 002°36'0 0.0
2017-May-23 16:30N 51°25' E 002°36'0 0.1
2017-May-23 16:00N 51°25' E 002°36'0 0.0
2017-May-23 15:30N 51°25' E 002°36'0 0.1
2017-May-23 14:57N 51°25' E 002°36'0 0.2
2017-May-23 13:57N 51°25' E 002°37'0 1.1
2017-May-23 13:30N 51°24' E 002°36'4 7.8
2017-May-23 13:00N 51°22' E 002°31'812.5
2017-May-23 12:23N 51°20' E 002°19'513.7
2017-May-23 11:59N 51°19' E 002°11'613.2
2017-May-23 11:30N 51°22' E 002°02'5 9.8
2017-May-23 11:00N 51°27' E 002°01'611.7
2017-May-23 10:30N 51°31' E 002°07'612.0
2017-May-23 10:00N 51°36' E 002°13'612.2
2017-May-23 09:30N 51°41' E 002°20'712.7
2017-May-23 08:59N 51°45' E 002°27'713.4
2017-May-23 08:29N 51°50' E 002°34'713.9
2017-May-23 07:59N 51°57' E 002°33'814.3
2017-May-23 07:27N 52°05' E 002°35'715.0
2017-May-23 06:58N 52°12' E 002°36'914.7
2017-May-23 06:22N 52°19' E 002°44'615.0
2017-May-23 05:58N 52°25' E 002°49'714.9
2017-May-23 05:30N 52°31' E 002°55'1014.5
2017-May-23 04:50N 52°39' E 003°02'514.0
2017-May-23 04:27N 52°44' E 003°06'613.5
2017-May-23 04:00N 52°49' E 003°11'13912.1
2017-May-22 16:28N 55°03' E 004°15'7112.9
2017-May-22 10:56N 56°15' E 004°06'12813.3
2017-May-22 01:21N 58°22' E 004°01'1513.0
2017-May-22 00:14N 58°37' E 003°60'1611.8
2017-May-21 22:55N 58°53' E 003°58'1812.8
2017-May-21 21:32N 59°10' E 004°00'  
Track history (hours):
 
Tides and Currents Weather Stations Pressure Air Temp Water Temp Dewpoint Dewpoint Depression Visibility Wind Speed Wind Dir Waves Ship Positions

Baltic Marshall

Last reported at 2017-May-25 00:17 UTC. Time now 2017-May-25 05:14 UTC.
Position N 51°16' E 004°21'.

Length 183 m; draft 10.1 m.

Type: Ship (hazmat cat B). MMSI: 212118000.

Date/timePositionNaut miles runAvg speedWind from/ knotsBaromVisibWave heightAir tempDewpointWater temp
2017-May-25 00:17N 51°16' E 004°21'0 0.2
2017-May-25 00:00N 51°16' E 004°21'1 1.7
2017-May-24 23:30N 51°17' E 004°21'3 6.1
2017-May-24 23:00N 51°20' E 004°18'1 3.0
2017-May-24 22:31N 51°21' E 004°17'0 0.0
2017-May-24 22:00N 51°21' E 004°17'0 0.2
2017-May-24 21:31N 51°21' E 004°17'3 5.4
2017-May-24 21:00N 51°22' E 004°13'5 9.9
2017-May-24 20:30N 51°22' E 004°05'611.0
2017-May-24 20:00N 51°26' E 003°59'612.7
2017-May-24 19:30N 51°21' E 003°53'611.6
2017-May-24 19:00N 51°22' E 003°44'510.1
2017-May-24 18:30N 51°26' E 003°38'5 9.7
2017-May-24 18:00N 51°25' E 003°31'611.4
2017-May-24 17:30N 51°24' E 003°22'510.8
2017-May-24 17:00N 51°25' E 003°13'611.2
2017-May-24 16:30N 51°24' E 003°04'611.5
2017-May-24 16:00N 51°23' E 002°55'612.5
2017-May-24 15:30N 51°22' E 002°45'4 7.2
2017-May-24 15:00N 51°22' E 002°40'3 6.3
2017-May-24 14:30N 51°23' E 002°35'2 1.6
2017-May-24 13:30N 51°25' E 002°36'0 0.0
2017-May-24 13:00N 51°25' E 002°36'0 0.0
2017-May-24 12:30N 51°25' E 002°36'0 0.0
2017-May-24 12:00N 51°25' E 002°36'0 0.0
2017-May-24 11:30N 51°25' E 002°36'0 0.0
2017-May-24 11:00N 51°25' E 002°36'0 0.0
2017-May-24 10:30N 51°25' E 002°37'0 0.1
2017-May-24 10:00N 51°25' E 002°37'0 0.1
2017-May-24 09:30N 51°25' E 002°37'0 0.2
2017-May-24 09:00N 51°25' E 002°36'0 0.1
2017-May-24 08:30N 51°25' E 002°36'0 0.0
2017-May-24 08:00N 51°25' E 002°36'0 0.0
2017-May-24 07:30N 51°25' E 002°36'0 0.0
2017-May-24 07:00N 51°25' E 002°36'0 0.0
2017-May-24 06:30N 51°25' E 002°36'0 0.1
2017-May-24 06:00N 51°25' E 002°36'0 0.0
2017-May-24 05:30N 51°25' E 002°36'0 0.1
2017-May-24 05:00N 51°25' E 002°36'0 0.2
2017-May-24 04:30N 51°25' E 002°36'0 0.3
2017-May-24 04:00N 51°25' E 002°36'0 0.1
2017-May-24 03:30N 51°25' E 002°37'0 0.0
2017-May-24 03:00N 51°25' E 002°37'0 0.0
2017-May-24 02:30N 51°25' E 002°37'0 0.0
2017-May-24 02:00N 51°25' E 002°37'0 0.0
2017-May-24 01:30N 51°25' E 002°37'0 0.0
2017-May-24 01:00N 51°25' E 002°37'0 0.0
2017-May-24 00:27N 51°25' E 002°37'0 0.0
2017-May-24 00:00N 51°25' E 002°37'0 0.0
2017-May-23 23:30N 51°25' E 002°37'0 0.1
2017-May-23 23:00N 51°25' E 002°37'0 0.0
2017-May-23 22:18N 51°25' E 002°37'0 0.0
2017-May-23 22:00N 51°25' E 002°37'0 0.0
2017-May-23 21:21N 51°25' E 002°37'0 0.0
2017-May-23 21:00N 51°25' E 002°37'0 0.2
2017-May-23 19:42N 51°25' E 002°36'0 0.0
2017-May-23 19:30N 51°25' E 002°36'0 0.0
2017-May-23 18:54N 51°25' E 002°36'0 0.0
2017-May-23 18:30N 51°25' E 002°36'0 0.0
2017-May-23 18:00N 51°25' E 002°36'0 0.0
2017-May-23 17:30N 51°25' E 002°36'0 0.0
2017-May-23 17:00N 51°25' E 002°36'0 0.0
2017-May-23 16:30N 51°25' E 002°36'0 0.1
2017-May-23 16:00N 51°25' E 002°36'0 0.0
2017-May-23 15:30N 51°25' E 002°36'0 0.1
2017-May-23 14:57N 51°25' E 002°36'0 0.2
2017-May-23 13:57N 51°25' E 002°37'0 1.1
2017-May-23 13:30N 51°24' E 002°36'4 7.8
2017-May-23 13:00N 51°22' E 002°31'812.5
2017-May-23 12:23N 51°20' E 002°19'513.7
2017-May-23 11:59N 51°19' E 002°11'613.2
2017-May-23 11:30N 51°22' E 002°02'5 9.8
2017-May-23 11:00N 51°27' E 002°01'611.7
2017-May-23 10:30N 51°31' E 002°07'612.0
2017-May-23 10:00N 51°36' E 002°13'612.2
2017-May-23 09:30N 51°41' E 002°20'712.7
2017-May-23 08:59N 51°45' E 002°27'713.4
2017-May-23 08:29N 51°50' E 002°34'713.9
2017-May-23 07:59N 51°57' E 002°33'814.3
2017-May-23 07:27N 52°05' E 002°35'715.0
2017-May-23 06:58N 52°12' E 002°36'914.7
2017-May-23 06:22N 52°19' E 002°44'615.0
2017-May-23 05:58N 52°25' E 002°49'714.9
2017-May-23 05:30N 52°31' E 002°55'1014.5
2017-May-23 04:50N 52°39' E 003°02'514.0
2017-May-23 04:27N 52°44' E 003°06'613.5
2017-May-23 04:00N 52°49' E 003°11'13912.1
2017-May-22 16:28N 55°03' E 004°15'7112.9
2017-May-22 10:56N 56°15' E 004°06'12813.3
2017-May-22 01:21N 58°22' E 004°01'1513.0
2017-May-22 00:14N 58°37' E 003°60'1611.8
2017-May-21 22:55N 58°53' E 003°58'1812.8
2017-May-21 21:32N 59°10' E 004°00'  

Dump ship's entire track history